KAAO

Colonel James Jabara Airport

Wichita, Kansas, USA
METAR KAAO 190454Z AUTO 17009KT 10SM CLR 25/21 A2991 RMK AO2 SLP112 T02500211
Observed Flight Rules
Sep-19 @ 04:54 UTC (32 minutes ago) Visual Flight Rules
Wind Visibility Clouds
170° at 9 knots 10 miles
  • Clear skies
Temperatures Readings
Current 25°C / 77°F
Dewpoint 21°C / 70°F
Humidity 79%
Altimeter 29.91" Hg
Pressure 1011.2 hPa
Elevation 434
METAR KAAO 190454Z AUTO 17009KT 10SM CLR 25/21 A2991 RMK AO2 SLP112 T02500211
Observed Flight Rules
Sep-19 @ 04:54 UTC
(32 minutes ago)
VFR
Wind Visibility
170° at 9 knots 10 miles
Clouds
  • Clear skies
Temperature Dewpoint
25°C / 77°F 21°C / 70°F
Humidity Altimeter Pressure
79% 29.91" Hg 1011.2 hPa